Newport, VA (24128)

10:33 PM EDT on August 22, 2014 (GMT -0400)
Zells Mill Road | Change Station
CLOSE
Current Station
Personal Weather Station
Location: Newport, VA
Elevation: 1811 ft
Nearby Weather Stations

Elev 1811 ft 37.31 °N, 80.51 °W | Updated 3 minutes ago

Overcast
Overcast
69.2 °F
Feels Like 69.2 °F
N
0.0
Wind Variable Wind from North
Gusts 0.0 mph

Today
High -- | Low -- °F
--% Chance of Precip.
Yesterday
High -- | Low -- °F
Precip. -- in
6:44 AM 8:04 PM
Waning Crescent, 6% visible
Pressure 30.09 in
Visibility 10.0 miles
Clouds Scattered Clouds 9000 ft
Overcast 11000 ft
Dew Point 68 °F
Humidity 97%
Rainfall 0.30 in
Snow Depth Not available.
UV 0 out of 12
Pollen 8.60 out of 12
Air Quality Not available.
Flu Activity Not available.
METAR KBCB 230215Z AUTO 00000KT 10SM SCT090 OVC110 22/22 A3009 RMK AO2 TSNO

More Conditions Fewer Conditions

Pressure 30.09 in
Visibility 10.0 miles
Clouds Scattered Clouds 9000 ft
Overcast 11000 ft
Dew Point 68 °F
Humidity 97%
Rainfall 0.30 in
Snow Depth Not available.
UV 0 out of 12
Pollen 8.60 out of 12
Air Quality Not available.
Flu Activity Not available.
METAR KBCB 230215Z AUTO 00000KT 10SM SCT090 OVC110 22/22 A3009 RMK AO2 TSNO

More Conditions Fewer Conditions

10-Day Weather Forecast

Almanac

Astronomy

Aug. 22, 2014 Rise Set
Actual Time 6:44 AM EDT 8:04 PM EDT
Civil Twilight 6:16 AM EDT 8:32 PM EDT
Nautical Twilight 5:44 AM EDT 9:04 PM EDT
Astronomical Twilight 5:09 AM EDT 9:38 PM EDT
Moon 4:06 AM EDT (8/22) 6:11 PM EDT (8/22)
Length of Visible Light 14h 15m
Length of Day
13h 20m
Tomorrow will be 2m 11s shorter.
Waning Crescent, 6% of the Moon is Illuminated
Today
Waning Crescent
Aug 25
New
Sep 2
First Quarter
Sep 8
Full
Sep 15
Last Quarter

Today's Extremes

State Highs State Lows

Community

WunderPhotos

Upload Photos

1,746,346 photos uploaded!

WunderBlogs® & News

Nearby

Snow Depth

Station Depth Elevation
No new snow has been reported.

Earthquake Activity

City Distance Mag. Time & Date
No recent earthquake activity has been reported nearby.
Minimum magnitude displayed is 2.5.

Coastal Water Temperatures

Place Temperature
No Stations Reporting

Nearby Weather Stations